SAS1790 EKCH-EETN
Flight info
| Callsign | SAS1790 |
|---|---|
| Flight time | 1h 18m |
| Altitude | 39000 |
| Route | EKCH/22L KEMAX DCT ROGMI DCT DOLEX DCT OSMUR |
| Aircraft | CRJ9/M-SDFGIRWY/S |
Departure
| Time | 2026-05-06 20:43 |
|---|---|
| Airport | Copenhagen Kastrup Airport (EKCH) |
Arrival
| Time | 2026-05-06 22:01 |
|---|---|
| Airport | Lennart Meri Tallinn Airport (EETN) |
| Time | Latitude | Longitude | Altitude | Speed | Heading |
|---|---|---|---|---|---|
| 2026-05-06 20:42 | 55.40177 | 12.50662 | 8515 ft | 266 kts | 99° |
| 2026-05-06 20:43 | 55.39870 | 12.53871 | 9087 ft | 267 kts | 97° |
| 2026-05-06 20:43 | 55.39610 | 12.57114 | 9645 ft | 268 kts | 97° |
| 2026-05-06 20:43 | 55.39381 | 12.60380 | 10159 ft | 270 kts | 96° |
| 2026-05-06 20:43 | 55.39170 | 12.63661 | 10652 ft | 271 kts | 96° |
| 2026-05-06 20:44 | 55.38965 | 12.66962 | 11146 ft | 272 kts | 96° |
| 2026-05-06 20:44 | 55.38989 | 12.70271 | 11623 ft | 272 kts | 72° |
| 2026-05-06 20:44 | 55.39939 | 12.73088 | 12163 ft | 269 kts | 47° |
| 2026-05-06 20:44 | 55.41211 | 12.75484 | 12695 ft | 268 kts | 43° |
| 2026-05-06 20:45 | 55.42565 | 12.77728 | 13207 ft | 267 kts | 40° |
| 2026-05-06 20:45 | 55.43974 | 12.79857 | 13765 ft | 266 kts | 37° |
| 2026-05-06 20:45 | 55.45498 | 12.81677 | 14243 ft | 264 kts | 29° |
| 2026-05-06 20:45 | 55.47025 | 12.83233 | 14707 ft | 262 kts | 27° |
| 2026-05-06 20:46 | 55.48564 | 12.84716 | 15175 ft | 260 kts | 26° |
| 2026-05-06 20:46 | 55.50151 | 12.86223 | 15661 ft | 258 kts | 26° |
| 2026-05-06 20:46 | 55.51729 | 12.87701 | 16160 ft | 255 kts | 25° |
| 2026-05-06 20:46 | 55.53294 | 12.89144 | 16625 ft | 253 kts | 25° |
| 2026-05-06 20:47 | 55.54841 | 12.90535 | 17052 ft | 252 kts | 24° |
| 2026-05-06 20:47 | 55.56331 | 12.91850 | 17441 ft | 251 kts | 24° |
| 2026-05-06 20:47 | 55.57896 | 12.93250 | 17826 ft | 255 kts | 24° |
| 2026-05-06 20:47 | 55.59492 | 12.94736 | 18286 ft | 262 kts | 24° |
| 2026-05-06 20:48 | 55.61125 | 12.96264 | 18738 ft | 267 kts | 24° |
| 2026-05-06 20:48 | 55.62777 | 12.97815 | 19232 ft | 270 kts | 25° |
| 2026-05-06 20:48 | 55.64440 | 12.99381 | 19744 ft | 272 kts | 25° |
| 2026-05-06 20:48 | 55.66116 | 13.00955 | 20249 ft | 273 kts | 25° |
| 2026-05-06 20:49 | 55.67797 | 13.02536 | 20752 ft | 274 kts | 25° |
| 2026-05-06 20:49 | 55.69486 | 13.04124 | 21250 ft | 275 kts | 25° |
| 2026-05-06 20:49 | 55.71183 | 13.05722 | 21738 ft | 276 kts | 25° |
| 2026-05-06 20:49 | 55.72885 | 13.07330 | 22236 ft | 277 kts | 24° |
| 2026-05-06 20:50 | 55.74592 | 13.08938 | 22703 ft | 278 kts | 24° |
| 2026-05-06 20:50 | 55.76222 | 13.10481 | 23150 ft | 279 kts | 24° |
| 2026-05-06 20:50 | 55.77937 | 13.12103 | 23600 ft | 280 kts | 24° |
| 2026-05-06 20:50 | 55.79638 | 13.13713 | 23967 ft | 280 kts | 24° |
| 2026-05-06 20:51 | 55.81366 | 13.15353 | 24337 ft | 281 kts | 25° |
| 2026-05-06 20:51 | 55.83088 | 13.16987 | 24688 ft | 281 kts | 25° |
| 2026-05-06 20:51 | 55.84753 | 13.18570 | 25016 ft | 282 kts | 25° |
| 2026-05-06 20:51 | 55.86439 | 13.20176 | 25339 ft | 283 kts | 25° |
| 2026-05-06 20:52 | 55.88181 | 13.21832 | 25665 ft | 284 kts | 25° |
| 2026-05-06 20:52 | 55.89929 | 13.23499 | 25969 ft | 285 kts | 25° |
| 2026-05-06 20:52 | 55.91687 | 13.25178 | 26272 ft | 287 kts | 25° |
| 2026-05-06 20:52 | 55.93449 | 13.26860 | 26572 ft | 288 kts | 25° |
| 2026-05-06 20:53 | 55.95215 | 13.28552 | 26864 ft | 288 kts | 25° |
| 2026-05-06 20:53 | 55.96919 | 13.30180 | 27123 ft | 289 kts | 26° |
| 2026-05-06 20:53 | 55.98671 | 13.31862 | 27404 ft | 290 kts | 26° |
| 2026-05-06 20:53 | 56.00453 | 13.33574 | 27676 ft | 291 kts | 26° |
| 2026-05-06 20:54 | 56.02240 | 13.35289 | 27941 ft | 292 kts | 26° |
| 2026-05-06 20:54 | 56.04030 | 13.37011 | 28199 ft | 293 kts | 26° |
| 2026-05-06 20:54 | 56.05828 | 13.38740 | 28453 ft | 293 kts | 26° |
| 2026-05-06 20:54 | 56.07628 | 13.40463 | 28697 ft | 294 kts | 26° |
| 2026-05-06 20:55 | 56.09435 | 13.42201 | 28933 ft | 295 kts | 26° |
| 2026-05-06 20:55 | 56.11249 | 13.43952 | 29182 ft | 296 kts | 26° |
| 2026-05-06 20:55 | 56.12994 | 13.45928 | 29319 ft | 300 kts | 44° |
| 2026-05-06 20:55 | 56.14360 | 13.48771 | 29476 ft | 301 kts | 57° |
| 2026-05-06 20:56 | 56.15426 | 13.51745 | 29699 ft | 300 kts | 60° |
| 2026-05-06 20:56 | 56.16427 | 13.54616 | 29903 ft | 301 kts | 59° |
| 2026-05-06 20:56 | 56.17596 | 13.57745 | 30095 ft | 302 kts | 56° |
| 2026-05-06 20:56 | 56.18855 | 13.60785 | 30260 ft | 303 kts | 53° |
| 2026-05-06 20:57 | 56.20135 | 13.63785 | 30428 ft | 303 kts | 53° |
| 2026-05-06 20:57 | 56.21409 | 13.66802 | 30590 ft | 303 kts | 54° |
| 2026-05-06 20:57 | 56.22660 | 13.69860 | 30751 ft | 303 kts | 55° |
| 2026-05-06 20:57 | 56.23901 | 13.72926 | 30901 ft | 303 kts | 55° |
| 2026-05-06 20:58 | 56.25147 | 13.76000 | 31050 ft | 304 kts | 54° |
| 2026-05-06 20:58 | 56.26392 | 13.79072 | 31196 ft | 304 kts | 54° |
| 2026-05-06 20:58 | 56.27624 | 13.82113 | 31339 ft | 305 kts | 54° |
| 2026-05-06 20:58 | 56.28872 | 13.85201 | 31486 ft | 305 kts | 54° |
| 2026-05-06 20:59 | 56.30120 | 13.88292 | 31611 ft | 305 kts | 54° |
| 2026-05-06 20:59 | 56.31290 | 13.91181 | 31767 ft | 305 kts | 55° |
| 2026-05-06 20:59 | 56.32547 | 13.94307 | 31814 ft | 310 kts | 55° |
| 2026-05-06 21:00 | 56.35075 | 14.00604 | 31835 ft | 324 kts | 55° |
| 2026-05-06 21:00 | 56.37774 | 14.07330 | 31934 ft | 333 kts | 55° |
| 2026-05-06 21:01 | 56.40527 | 14.14220 | 32027 ft | 342 kts | 55° |
| 2026-05-06 21:01 | 56.43316 | 14.21217 | 32022 ft | 346 kts | 55° |
| 2026-05-06 21:02 | 56.46089 | 14.28247 | 32034 ft | 363 kts | 55° |
| 2026-05-06 21:02 | 56.47552 | 14.32036 | 31951 ft | 375 kts | 56° |
| 2026-05-06 21:02 | 56.49070 | 14.36005 | 31850 ft | 387 kts | 55° |
| 2026-05-06 21:03 | 56.52315 | 14.44014 | 31818 ft | 406 kts | 54° |
| 2026-05-06 21:03 | 56.55609 | 14.52321 | 31829 ft | 423 kts | 55° |
| 2026-05-06 21:04 | 56.58948 | 14.60801 | 31962 ft | 435 kts | 55° |
| 2026-05-06 21:04 | 56.62514 | 14.69919 | 32005 ft | 449 kts | 55° |
| 2026-05-06 21:05 | 56.66180 | 14.79343 | 32014 ft | 463 kts | 55° |
| 2026-05-06 21:05 | 56.69944 | 14.89048 | 32014 ft | 476 kts | 55° |
| 2026-05-06 21:06 | 56.73617 | 14.98566 | 32014 ft | 487 kts | 55° |
| 2026-05-06 21:06 | 56.77520 | 15.08721 | 32016 ft | 498 kts | 55° |
| 2026-05-06 21:07 | 56.81529 | 15.19189 | 32013 ft | 507 kts | 55° |
| 2026-05-06 21:07 | 56.85519 | 15.29660 | 32011 ft | 514 kts | 55° |
| 2026-05-06 21:08 | 56.89534 | 15.40240 | 32009 ft | 520 kts | 56° |
| 2026-05-06 21:08 | 56.93568 | 15.50907 | 31999 ft | 516 kts | 56° |
| 2026-05-06 21:09 | 56.97627 | 15.61700 | 32002 ft | 511 kts | 56° |
| 2026-05-06 21:09 | 57.01516 | 15.72081 | 31998 ft | 508 kts | 56° |
| 2026-05-06 21:10 | 57.05503 | 15.82778 | 31995 ft | 507 kts | 56° |
| 2026-05-06 21:10 | 57.09488 | 15.93507 | 32004 ft | 515 kts | 56° |
| 2026-05-06 21:11 | 57.13391 | 16.04071 | 32009 ft | 520 kts | 56° |
| 2026-05-06 21:11 | 57.17462 | 16.15136 | 32017 ft | 520 kts | 56° |
| 2026-05-06 21:12 | 57.21480 | 16.26098 | 31986 ft | 512 kts | 56° |
| 2026-05-06 21:12 | 57.25339 | 16.36682 | 31990 ft | 504 kts | 56° |
| 2026-05-06 21:13 | 57.29259 | 16.47488 | 31998 ft | 508 kts | 56° |
| 2026-05-06 21:13 | 57.33162 | 16.58289 | 32003 ft | 513 kts | 57° |
| 2026-05-06 21:14 | 57.37138 | 16.69338 | 32017 ft | 517 kts | 57° |
| 2026-05-06 21:14 | 57.41071 | 16.80309 | 32001 ft | 521 kts | 57° |
| 2026-05-06 21:15 | 57.45077 | 16.91555 | 32003 ft | 524 kts | 57° |
| 2026-05-06 21:15 | 57.49069 | 17.02809 | 32003 ft | 526 kts | 57° |
| 2026-05-06 21:16 | 57.52965 | 17.13836 | 31990 ft | 523 kts | 57° |
| 2026-05-06 21:16 | 57.56928 | 17.25115 | 32000 ft | 518 kts | 57° |
| 2026-05-06 21:17 | 57.60853 | 17.36336 | 32001 ft | 515 kts | 58° |
| 2026-05-06 21:17 | 57.64687 | 17.47342 | 31994 ft | 512 kts | 58° |
| 2026-05-06 21:18 | 57.67897 | 17.56607 | 31992 ft | 510 kts | 58° |
| 2026-05-06 21:18 | 57.72325 | 17.69431 | 32002 ft | 509 kts | 58° |
| 2026-05-06 21:19 | 57.75475 | 17.78599 | 32003 ft | 508 kts | 58° |
| 2026-05-06 21:19 | 57.79286 | 17.89745 | 32008 ft | 508 kts | 58° |
| 2026-05-06 21:20 | 57.83094 | 18.00922 | 32000 ft | 509 kts | 58° |
| 2026-05-06 21:20 | 57.86866 | 18.12040 | 32001 ft | 516 kts | 58° |
| 2026-05-06 21:21 | 57.90666 | 18.23308 | 32007 ft | 522 kts | 58° |
| 2026-05-06 21:21 | 57.94566 | 18.34927 | 32006 ft | 525 kts | 58° |
| 2026-05-06 21:22 | 57.98336 | 18.46205 | 32017 ft | 517 kts | 58° |
| 2026-05-06 21:22 | 58.02130 | 18.57623 | 32008 ft | 511 kts | 58° |
| 2026-05-06 21:23 | 58.05887 | 18.68973 | 32007 ft | 507 kts | 58° |
| 2026-05-06 21:23 | 58.09557 | 18.80124 | 32001 ft | 503 kts | 59° |
| 2026-05-06 21:24 | 58.13204 | 18.91245 | 32011 ft | 508 kts | 59° |
| 2026-05-06 21:24 | 58.16949 | 19.02723 | 32016 ft | 514 kts | 59° |
| 2026-05-06 21:25 | 58.20684 | 19.14228 | 32018 ft | 515 kts | 58° |
| 2026-05-06 21:25 | 58.24380 | 19.25668 | 32013 ft | 515 kts | 59° |
| 2026-05-06 21:26 | 58.28065 | 19.37121 | 32010 ft | 515 kts | 59° |
| 2026-05-06 21:26 | 58.31784 | 19.48754 | 32011 ft | 515 kts | 59° |
| 2026-05-06 21:27 | 58.35432 | 19.60209 | 31984 ft | 514 kts | 59° |
| 2026-05-06 21:27 | 58.39121 | 19.71859 | 32016 ft | 514 kts | 59° |
| 2026-05-06 21:28 | 58.42787 | 19.83489 | 32016 ft | 514 kts | 59° |
| 2026-05-06 21:28 | 58.46328 | 19.94775 | 32014 ft | 514 kts | 59° |
| 2026-05-06 21:29 | 58.49990 | 20.06503 | 32016 ft | 514 kts | 60° |
| 2026-05-06 21:29 | 58.53644 | 20.18262 | 32012 ft | 514 kts | 60° |
| 2026-05-06 21:30 | 58.57211 | 20.29800 | 32035 ft | 514 kts | 60° |
| 2026-05-06 21:30 | 58.60852 | 20.41636 | 32020 ft | 515 kts | 60° |
| 2026-05-06 21:31 | 58.64439 | 20.53362 | 32010 ft | 516 kts | 60° |
| 2026-05-06 21:31 | 58.68003 | 20.65066 | 32017 ft | 515 kts | 60° |
| 2026-05-06 21:32 | 58.71585 | 20.76897 | 32016 ft | 515 kts | 60° |
| 2026-05-06 21:32 | 58.76911 | 20.94592 | 32033 ft | 516 kts | 60° |
| 2026-05-06 21:33 | 58.80446 | 21.06403 | 32022 ft | 516 kts | 60° |
| 2026-05-06 21:33 | 58.84025 | 21.18432 | 32024 ft | 517 kts | 60° |
| 2026-05-06 21:34 | 58.87527 | 21.30260 | 32013 ft | 517 kts | 60° |
| 2026-05-06 21:34 | 58.90773 | 21.42548 | 32004 ft | 516 kts | 69° |
| 2026-05-06 21:35 | 58.93051 | 21.55684 | 32018 ft | 514 kts | 75° |
| 2026-05-06 21:35 | 58.95194 | 21.68651 | 32026 ft | 515 kts | 73° |
| 2026-05-06 21:36 | 58.97495 | 21.81825 | 32020 ft | 516 kts | 73° |
| 2026-05-06 21:36 | 58.99730 | 21.94833 | 32020 ft | 516 kts | 73° |
| 2026-05-06 21:37 | 59.01939 | 22.07748 | 32011 ft | 516 kts | 73° |
| 2026-05-06 21:37 | 59.04189 | 22.21004 | 31990 ft | 516 kts | 73° |
| 2026-05-06 21:38 | 59.06378 | 22.33935 | 32015 ft | 515 kts | 73° |
| 2026-05-06 21:38 | 59.07482 | 22.40524 | 32014 ft | 503 kts | 73° |
| 2026-05-06 21:38 | 59.08535 | 22.46832 | 31935 ft | 478 kts | 73° |
| 2026-05-06 21:39 | 59.09538 | 22.52863 | 31777 ft | 460 kts | 74° |
| 2026-05-06 21:39 | 59.10500 | 22.58695 | 31544 ft | 445 kts | 74° |
| 2026-05-06 21:39 | 59.11432 | 22.64350 | 31274 ft | 433 kts | 74° |
| 2026-05-06 21:39 | 59.12313 | 22.69693 | 30929 ft | 424 kts | 74° |
| 2026-05-06 21:40 | 59.13220 | 22.75169 | 30335 ft | 424 kts | 74° |
| 2026-05-06 21:40 | 59.14118 | 22.80606 | 29799 ft | 420 kts | 74° |
| 2026-05-06 21:40 | 59.15005 | 22.86007 | 29242 ft | 416 kts | 74° |
| 2026-05-06 21:40 | 59.15878 | 22.91353 | 28700 ft | 413 kts | 74° |
| 2026-05-06 21:41 | 59.16719 | 22.96523 | 28202 ft | 409 kts | 74° |
| 2026-05-06 21:41 | 59.17577 | 23.01802 | 27703 ft | 406 kts | 74° |
| 2026-05-06 21:41 | 59.18384 | 23.06798 | 27254 ft | 401 kts | 74° |
| 2026-05-06 21:41 | 59.19220 | 23.11966 | 26777 ft | 398 kts | 74° |
| 2026-05-06 21:42 | 59.20052 | 23.17106 | 26310 ft | 395 kts | 74° |
| 2026-05-06 21:42 | 59.20862 | 23.22126 | 25846 ft | 393 kts | 74° |
| 2026-05-06 21:42 | 59.21673 | 23.27203 | 25404 ft | 390 kts | 74° |
| 2026-05-06 21:42 | 59.22477 | 23.32248 | 24968 ft | 387 kts | 74° |
| 2026-05-06 21:43 | 59.23273 | 23.37255 | 24532 ft | 386 kts | 74° |
| 2026-05-06 21:43 | 59.24045 | 23.42111 | 24084 ft | 386 kts | 75° |
| 2026-05-06 21:43 | 59.24830 | 23.47098 | 23693 ft | 383 kts | 76° |
| 2026-05-06 21:43 | 59.25340 | 23.52156 | 23240 ft | 377 kts | 87° |
| 2026-05-06 21:44 | 59.25515 | 23.57250 | 22798 ft | 373 kts | 91° |
| 2026-05-06 21:44 | 59.25640 | 23.62288 | 22376 ft | 370 kts | 90° |
| 2026-05-06 21:44 | 59.25843 | 23.67289 | 21957 ft | 368 kts | 87° |
| 2026-05-06 21:44 | 59.26125 | 23.72249 | 21408 ft | 365 kts | 86° |
| 2026-05-06 21:45 | 59.26397 | 23.76981 | 20828 ft | 362 kts | 86° |
| 2026-05-06 21:45 | 59.26660 | 23.81850 | 20216 ft | 358 kts | 88° |
| 2026-05-06 21:45 | 59.26896 | 23.86664 | 19654 ft | 354 kts | 88° |
| 2026-05-06 21:45 | 59.27122 | 23.91345 | 19327 ft | 345 kts | 88° |
| 2026-05-06 21:46 | 59.27341 | 23.95995 | 18831 ft | 341 kts | 88° |
| 2026-05-06 21:46 | 59.27563 | 24.00598 | 18347 ft | 338 kts | 88° |
| 2026-05-06 21:46 | 59.27775 | 24.05165 | 17801 ft | 335 kts | 88° |
| 2026-05-06 21:46 | 59.27979 | 24.09534 | 17279 ft | 332 kts | 88° |
| 2026-05-06 21:47 | 59.28189 | 24.14002 | 16739 ft | 328 kts | 87° |
| 2026-05-06 21:47 | 59.28398 | 24.18426 | 16231 ft | 324 kts | 87° |
| 2026-05-06 21:47 | 59.28602 | 24.22791 | 15709 ft | 321 kts | 86° |
| 2026-05-06 21:47 | 59.28800 | 24.27109 | 15214 ft | 317 kts | 86° |
| 2026-05-06 21:48 | 59.28995 | 24.31381 | 14719 ft | 313 kts | 86° |
| 2026-05-06 21:48 | 59.29192 | 24.35594 | 14233 ft | 310 kts | 85° |
| 2026-05-06 21:48 | 59.29385 | 24.39790 | 13778 ft | 308 kts | 85° |
| 2026-05-06 21:48 | 59.29568 | 24.43767 | 13254 ft | 303 kts | 85° |
| 2026-05-06 21:49 | 59.29755 | 24.47837 | 12726 ft | 299 kts | 85° |
| 2026-05-06 21:49 | 59.29927 | 24.51864 | 12211 ft | 295 kts | 85° |
| 2026-05-06 21:49 | 59.30095 | 24.55843 | 11693 ft | 290 kts | 85° |
| 2026-05-06 21:49 | 59.30261 | 24.59765 | 11188 ft | 287 kts | 85° |
| 2026-05-06 21:50 | 59.30429 | 24.63629 | 10698 ft | 283 kts | 85° |
| 2026-05-06 21:50 | 59.30590 | 24.67450 | 10215 ft | 280 kts | 86° |
| 2026-05-06 21:50 | 59.30743 | 24.71169 | 9740 ft | 275 kts | 86° |
| 2026-05-06 21:50 | 59.30898 | 24.74863 | 9226 ft | 270 kts | 85° |
| 2026-05-06 21:51 | 59.31053 | 24.78470 | 8786 ft | 271 kts | 85° |
| 2026-05-06 21:51 | 59.31206 | 24.82064 | 8369 ft | 271 kts | 86° |
| 2026-05-06 21:51 | 59.31356 | 24.85744 | 7969 ft | 270 kts | 85° |
| 2026-05-06 21:51 | 59.31506 | 24.89405 | 7566 ft | 269 kts | 85° |
| 2026-05-06 21:52 | 59.31652 | 24.92978 | 7267 ft | 257 kts | 85° |
| 2026-05-06 21:52 | 59.31780 | 24.96380 | 6969 ft | 245 kts | 86° |
| 2026-05-06 21:52 | 59.31902 | 24.99642 | 6676 ft | 237 kts | 86° |
| 2026-05-06 21:52 | 59.32021 | 25.02852 | 6393 ft | 235 kts | 86° |
| 2026-05-06 21:53 | 59.32133 | 25.06032 | 6098 ft | 233 kts | 86° |
| 2026-05-06 21:53 | 59.32247 | 25.09184 | 5808 ft | 231 kts | 86° |
| 2026-05-06 21:53 | 59.32366 | 25.12337 | 5513 ft | 236 kts | 85° |
| 2026-05-06 21:53 | 59.32490 | 25.15460 | 5246 ft | 239 kts | 85° |
| 2026-05-06 21:54 | 59.32621 | 25.18676 | 4964 ft | 235 kts | 83° |
| 2026-05-06 21:54 | 59.33208 | 25.21573 | 4640 ft | 232 kts | 48° |
| 2026-05-06 21:54 | 59.34524 | 25.23146 | 4366 ft | 229 kts | 21° |
| 2026-05-06 21:54 | 59.36027 | 25.23935 | 4092 ft | 226 kts | 9° |
| 2026-05-06 21:55 | 59.37591 | 25.24146 | 3805 ft | 225 kts | 2° |
| 2026-05-06 21:55 | 59.39150 | 25.24063 | 3517 ft | 224 kts | 352° |
| 2026-05-06 21:55 | 59.40513 | 25.22648 | 3112 ft | 230 kts | 311° |
| 2026-05-06 21:55 | 59.41166 | 25.19810 | 2790 ft | 230 kts | 282° |
| 2026-05-06 21:56 | 59.41348 | 25.16702 | 2525 ft | 228 kts | 271° |
| 2026-05-06 21:56 | 59.41306 | 25.13689 | 2357 ft | 217 kts | 267° |
| 2026-05-06 21:56 | 59.41248 | 25.10927 | 2250 ft | 195 kts | 268° |
| 2026-05-06 21:56 | 59.41221 | 25.08361 | 2195 ft | 181 kts | 269° |
| 2026-05-06 21:57 | 59.41226 | 25.06026 | 2146 ft | 160 kts | 270° |
| 2026-05-06 21:57 | 59.41239 | 25.03887 | 1858 ft | 157 kts | 271° |
| 2026-05-06 21:57 | 59.41264 | 25.01783 | 1588 ft | 149 kts | 272° |
| 2026-05-06 21:57 | 59.41280 | 24.99915 | 1548 ft | 129 kts | 271° |
| 2026-05-06 21:58 | 59.41283 | 24.98247 | 1341 ft | 120 kts | 270° |
| 2026-05-06 21:58 | 59.41278 | 24.96618 | 1119 ft | 121 kts | 270° |
| 2026-05-06 21:58 | 59.41283 | 24.94910 | 859 ft | 127 kts | 272° |
| 2026-05-06 21:58 | 59.41302 | 24.93238 | 769 ft | 122 kts | 272° |
| 2026-05-06 21:59 | 59.41297 | 24.91556 | 598 ft | 122 kts | 271° |
| 2026-05-06 21:59 | 59.41305 | 24.89909 | 475 ft | 119 kts | 272° |
| 2026-05-06 21:59 | 59.41313 | 24.88280 | 329 ft | 121 kts | 270° |
| 2026-05-06 21:59 | 59.41315 | 24.86638 | 168 ft | 118 kts | 271° |
| 2026-05-06 22:00 | 59.41318 | 24.85255 | 163 ft | 87 kts | 270° |
| 2026-05-06 22:00 | 59.41323 | 24.84185 | 159 ft | 70 kts | 271° |
| 2026-05-06 22:00 | 59.41326 | 24.83420 | 162 ft | 52 kts | 270° |
| 2026-05-06 22:00 | 59.41355 | 24.82731 | 159 ft | 50 kts | 291° |
| 2026-05-06 22:01 | 59.41501 | 24.82124 | 160 ft | 49 kts | 277° |
| 2026-05-06 22:01 | 59.41504 | 24.81479 | 160 ft | 27 kts | 270° |
| 2026-05-06 22:01 | 59.41505 | 24.81089 | 160 ft | 30 kts | 270° |
| 2026-05-06 22:01 | 59.41507 | 24.80665 | 160 ft | 25 kts | 269° |
| 2026-05-06 22:02 | 59.41583 | 24.80509 | 160 ft | 15 kts | 2° |
| 2026-05-06 22:02 | 59.41700 | 24.80491 | 160 ft | 18 kts | 335° |
| 2026-05-06 22:02 | 59.41743 | 24.80343 | 160 ft | 16 kts | 283° |
| 2026-05-06 22:02 | 59.41759 | 24.80141 | 160 ft | 10 kts | 304° |
| 2026-05-06 22:03 | 59.41796 | 24.80067 | 160 ft | 0 kts | 316° |
| 2026-05-06 22:03 | 59.41797 | 24.80065 | 160 ft | 0 kts | 316° |